Terminal Aerodrome Forecast
Issued by NWS Billings, MT

Home | Current Version | Previous Version | Text Only | Print | Product List | Glossary On
Versions: 1 2 3 4 5 6 7 8 9 10 11 12 13
000
FTUS45 KBYZ 242320
TAFBIL
TAF
KBIL 242320Z 2500/2524 05008KT P6SM VCTS BKN050CB BKN100
     FM250200 32007KT P6SM VCSH FEW025 BKN050
     FM251200 28008KT P6SM VCSH FEW015 BKN025 OVC050
     FM252000 25010KT P6SM VCTS SCT040CB BKN100=

USA.gov is the U.S. government's official web portal to all federal, state and local government web resources and services.